sensor_id;sensor_type;location;lat;lon;timestamp;P1;durP1;ratioP1;P2;durP2;ratioP2
5869;SDS011;2961;47.702;9.410;2022-12-07T00:00:44;70.30;;;34.83;;
5869;SDS011;2961;47.702;9.410;2022-12-07T00:03:10;63.97;;;32.60;;
5869;SDS011;2961;47.702;9.410;2022-12-07T00:05:37;75.70;;;34.47;;
5869;SDS011;2961;47.702;9.410;2022-12-07T00:08:05;68.33;;;33.00;;
5869;SDS011;2961;47.702;9.410;2022-12-07T00:10:32;65.37;;;32.23;;
5869;SDS011;2961;47.702;9.410;2022-12-07T00:12:59;74.53;;;32.50;;
5869;SDS011;2961;47.702;9.410;2022-12-07T00:15:26;73.30;;;34.37;;
5869;SDS011;2961;47.702;9.410;2022-12-07T00:17:53;65.53;;;33.23;;
5869;SDS011;2961;47.702;9.410;2022-12-07T00:20:20;72.03;;;32.37;;
5869;SDS011;2961;47.702;9.410;2022-12-07T00:22:47;66.30;;;30.87;;
5869;SDS011;2961;47.702;9.410;2022-12-07T00:25:15;73.33;;;36.37;;
5869;SDS011;2961;47.702;9.410;2022-12-07T00:27:42;66.87;;;32.13;;
5869;SDS011;2961;47.702;9.410;2022-12-07T00:30:09;67.23;;;33.73;;
5869;SDS011;2961;47.702;9.410;2022-12-07T00:32:36;68.53;;;34.73;;
5869;SDS011;2961;47.702;9.410;2022-12-07T00:35:03;62.00;;;30.07;;
5869;SDS011;2961;47.702;9.410;2022-12-07T00:37:30;65.93;;;32.20;;
5869;SDS011;2961;47.702;9.410;2022-12-07T00:39:57;75.67;;;33.90;;
5869;SDS011;2961;47.702;9.410;2022-12-07T00:42:25;72.50;;;33.73;;
5869;SDS011;2961;47.702;9.410;2022-12-07T00:44:51;59.20;;;30.97;;
5869;SDS011;2961;47.702;9.410;2022-12-07T00:47:18;65.90;;;33.67;;
5869;SDS011;2961;47.702;9.410;2022-12-07T00:49:45;69.73;;;31.00;;
5869;SDS011;2961;47.702;9.410;2022-12-07T00:52:12;67.27;;;32.07;;
5869;SDS011;2961;47.702;9.410;2022-12-07T00:54:39;65.07;;;33.60;;
5869;SDS011;2961;47.702;9.410;2022-12-07T00:57:06;67.03;;;31.17;;
5869;SDS011;2961;47.702;9.410;2022-12-07T00:59:34;65.60;;;32.50;;
5869;SDS011;2961;47.702;9.410;2022-12-07T01:02:01;56.00;;;28.97;;
5869;SDS011;2961;47.702;9.410;2022-12-07T01:04:27;62.20;;;31.07;;
5869;SDS011;2961;47.702;9.410;2022-12-07T01:06:54;58.93;;;31.60;;
5869;SDS011;2961;47.702;9.410;2022-12-07T01:09:21;61.50;;;30.20;;
5869;SDS011;2961;47.702;9.410;2022-12-07T01:11:48;59.77;;;30.00;;
5869;SDS011;2961;47.702;9.410;2022-12-07T01:14:15;60.23;;;30.97;;
5869;SDS011;2961;47.702;9.410;2022-12-07T01:16:43;65.50;;;31.07;;
5869;SDS011;2961;47.702;9.410;2022-12-07T01:19:09;64.47;;;31.70;;
5869;SDS011;2961;47.702;9.410;2022-12-07T01:21:36;67.10;;;32.03;;
5869;SDS011;2961;47.702;9.410;2022-12-07T01:24:05;68.67;;;33.40;;
5869;SDS011;2961;47.702;9.410;2022-12-07T01:26:35;67.50;;;32.47;;
5869;SDS011;2961;47.702;9.410;2022-12-07T01:29:02;55.23;;;28.90;;
5869;SDS011;2961;47.702;9.410;2022-12-07T01:31:29;60.53;;;28.80;;
5869;SDS011;2961;47.702;9.410;2022-12-07T01:33:58;54.10;;;28.20;;
5869;SDS011;2961;47.702;9.410;2022-12-07T01:36:26;61.17;;;30.10;;
5869;SDS011;2961;47.702;9.410;2022-12-07T01:38:55;65.60;;;32.57;;
5869;SDS011;2961;47.702;9.410;2022-12-07T01:41:23;55.90;;;28.97;;
5869;SDS011;2961;47.702;9.410;2022-12-07T01:44:07;54.00;;;28.40;;
5869;SDS011;2961;47.702;9.410;2022-12-07T01:46:43;67.77;;;29.80;;
5869;SDS011;2961;47.702;9.410;2022-12-07T01:49:13;62.50;;;30.93;;
5869;SDS011;2961;47.702;9.410;2022-12-07T01:51:44;65.93;;;32.13;;
5869;SDS011;2961;47.702;9.410;2022-12-07T01:54:13;59.07;;;30.13;;
5869;SDS011;2961;47.702;9.410;2022-12-07T01:56:42;54.40;;;28.07;;
5869;SDS011;2961;47.702;9.410;2022-12-07T01:59:13;56.10;;;27.37;;
5869;SDS011;2961;47.702;9.410;2022-12-07T02:01:40;66.70;;;30.50;;
5869;SDS011;2961;47.702;9.410;2022-12-07T02:04:07;60.00;;;29.87;;
5869;SDS011;2961;47.702;9.410;2022-12-07T02:06:37;64.20;;;31.33;;
5869;SDS011;2961;47.702;9.410;2022-12-07T02:09:04;63.73;;;28.53;;
5869;SDS011;2961;47.702;9.410;2022-12-07T02:11:31;63.00;;;30.80;;
5869;SDS011;2961;47.702;9.410;2022-12-07T02:13:58;54.23;;;27.70;;
5869;SDS011;2961;47.702;9.410;2022-12-07T02:16:26;62.67;;;29.20;;
5869;SDS011;2961;47.702;9.410;2022-12-07T02:19:05;56.20;;;29.97;;
5869;SDS011;2961;47.702;9.410;2022-12-07T02:21:51;63.43;;;30.00;;
5869;SDS011;2961;47.702;9.410;2022-12-07T02:27:25;57.70;;;27.60;;
5869;SDS011;2961;47.702;9.410;2022-12-07T02:30:04;57.00;;;27.97;;
5869;SDS011;2961;47.702;9.410;2022-12-07T02:32:38;61.33;;;28.47;;
5869;SDS011;2961;47.702;9.410;2022-12-07T02:35:11;62.93;;;30.17;;
5869;SDS011;2961;47.702;9.410;2022-12-07T02:37:46;63.00;;;28.77;;
5869;SDS011;2961;47.702;9.410;2022-12-07T02:40:20;61.53;;;29.67;;
5869;SDS011;2961;47.702;9.410;2022-12-07T02:42:53;55.20;;;28.23;;
5869;SDS011;2961;47.702;9.410;2022-12-07T02:45:26;56.93;;;27.37;;
5869;SDS011;2961;47.702;9.410;2022-12-07T02:47:57;62.73;;;29.40;;
5869;SDS011;2961;47.702;9.410;2022-12-07T02:50:26;51.57;;;26.67;;
5869;SDS011;2961;47.702;9.410;2022-12-07T02:52:53;52.73;;;26.27;;
5869;SDS011;2961;47.702;9.410;2022-12-07T02:55:22;61.50;;;29.30;;
5869;SDS011;2961;47.702;9.410;2022-12-07T02:57:58;53.57;;;28.00;;
5869;SDS011;2961;47.702;9.410;2022-12-07T03:00:54;59.10;;;29.70;;
5869;SDS011;2961;47.702;9.410;2022-12-07T03:03:28;50.43;;;27.33;;
5869;SDS011;2961;47.702;9.410;2022-12-07T03:05:59;55.73;;;27.90;;
5869;SDS011;2961;47.702;9.410;2022-12-07T03:08:36;60.20;;;28.97;;
5869;SDS011;2961;47.702;9.410;2022-12-07T03:11:10;63.17;;;29.20;;
5869;SDS011;2961;47.702;9.410;2022-12-07T03:13:41;67.83;;;29.20;;
5869;SDS011;2961;47.702;9.410;2022-12-07T03:16:15;51.93;;;26.97;;
5869;SDS011;2961;47.702;9.410;2022-12-07T03:18:45;54.47;;;28.77;;
5869;SDS011;2961;47.702;9.410;2022-12-07T03:21:16;58.87;;;30.60;;
5869;SDS011;2961;47.702;9.410;2022-12-07T03:23:47;52.07;;;28.80;;
5869;SDS011;2961;47.702;9.410;2022-12-07T03:26:17;48.17;;;24.57;;
5869;SDS011;2961;47.702;9.410;2022-12-07T03:28:48;51.97;;;26.10;;
5869;SDS011;2961;47.702;9.410;2022-12-07T03:31:20;57.13;;;28.30;;
5869;SDS011;2961;47.702;9.410;2022-12-07T03:33:50;55.90;;;27.50;;
5869;SDS011;2961;47.702;9.410;2022-12-07T03:36:24;49.83;;;27.50;;
5869;SDS011;2961;47.702;9.410;2022-12-07T03:38:57;60.93;;;28.07;;
5869;SDS011;2961;47.702;9.410;2022-12-07T03:41:30;51.80;;;28.53;;
5869;SDS011;2961;47.702;9.410;2022-12-07T03:43:59;63.40;;;31.27;;
5869;SDS011;2961;47.702;9.410;2022-12-07T03:46:30;56.67;;;28.80;;
5869;SDS011;2961;47.702;9.410;2022-12-07T03:49:06;52.17;;;27.50;;
5869;SDS011;2961;47.702;9.410;2022-12-07T03:51:39;55.33;;;26.50;;
5869;SDS011;2961;47.702;9.410;2022-12-07T03:54:10;53.93;;;26.07;;
5869;SDS011;2961;47.702;9.410;2022-12-07T03:56:43;54.67;;;27.63;;
5869;SDS011;2961;47.702;9.410;2022-12-07T03:59:12;54.50;;;26.87;;
5869;SDS011;2961;47.702;9.410;2022-12-07T04:01:42;63.77;;;30.93;;
5869;SDS011;2961;47.702;9.410;2022-12-07T04:04:09;50.47;;;25.73;;
5869;SDS011;2961;47.702;9.410;2022-12-07T04:06:37;51.20;;;27.20;;
5869;SDS011;2961;47.702;9.410;2022-12-07T04:09:03;45.27;;;21.63;;
5869;SDS011;2961;47.702;9.410;2022-12-07T04:11:30;58.87;;;28.43;;
5869;SDS011;2961;47.702;9.410;2022-12-07T04:13:57;59.97;;;28.20;;
5869;SDS011;2961;47.702;9.410;2022-12-07T04:16:43;60.63;;;27.07;;
5869;SDS011;2961;47.702;9.410;2022-12-07T04:19:09;59.43;;;27.37;;
5869;SDS011;2961;47.702;9.410;2022-12-07T04:21:36;74.00;;;32.00;;
5869;SDS011;2961;47.702;9.410;2022-12-07T04:24:03;69.37;;;30.17;;
5869;SDS011;2961;47.702;9.410;2022-12-07T04:26:30;74.83;;;31.93;;
5869;SDS011;2961;47.702;9.410;2022-12-07T04:28:57;69.33;;;29.27;;
5869;SDS011;2961;47.702;9.410;2022-12-07T04:31:24;65.63;;;30.00;;
5869;SDS011;2961;47.702;9.410;2022-12-07T04:33:52;61.00;;;28.23;;
5869;SDS011;2961;47.702;9.410;2022-12-07T04:36:19;66.37;;;26.63;;
5869;SDS011;2961;47.702;9.410;2022-12-07T04:38:46;58.07;;;26.27;;
5869;SDS011;2961;47.702;9.410;2022-12-07T04:41:13;65.00;;;28.70;;
5869;SDS011;2961;47.702;9.410;2022-12-07T04:43:40;65.50;;;29.00;;
5869;SDS011;2961;47.702;9.410;2022-12-07T04:46:06;61.13;;;26.27;;
5869;SDS011;2961;47.702;9.410;2022-12-07T04:48:33;61.53;;;27.70;;
5869;SDS011;2961;47.702;9.410;2022-12-07T04:51:01;64.77;;;27.07;;
5869;SDS011;2961;47.702;9.410;2022-12-07T04:53:28;62.90;;;27.67;;
5869;SDS011;2961;47.702;9.410;2022-12-07T04:55:55;61.97;;;26.83;;
5869;SDS011;2961;47.702;9.410;2022-12-07T04:58:22;59.10;;;26.70;;
5869;SDS011;2961;47.702;9.410;2022-12-07T05:00:49;60.73;;;25.33;;
5869;SDS011;2961;47.702;9.410;2022-12-07T05:03:15;59.47;;;27.53;;
5869;SDS011;2961;47.702;9.410;2022-12-07T05:05:42;61.40;;;26.07;;
5869;SDS011;2961;47.702;9.410;2022-12-07T05:08:10;61.63;;;23.93;;
5869;SDS011;2961;47.702;9.410;2022-12-07T05:10:37;62.30;;;26.27;;
5869;SDS011;2961;47.702;9.410;2022-12-07T05:13:04;59.33;;;25.50;;
5869;SDS011;2961;47.702;9.410;2022-12-07T05:15:30;64.07;;;25.70;;
5869;SDS011;2961;47.702;9.410;2022-12-07T05:17:57;63.83;;;23.10;;
5869;SDS011;2961;47.702;9.410;2022-12-07T05:20:24;60.20;;;26.53;;
5869;SDS011;2961;47.702;9.410;2022-12-07T05:22:51;62.03;;;24.00;;
5869;SDS011;2961;47.702;9.410;2022-12-07T05:25:19;56.87;;;25.30;;
5869;SDS011;2961;47.702;9.410;2022-12-07T05:27:46;68.60;;;24.60;;
5869;SDS011;2961;47.702;9.410;2022-12-07T05:30:13;63.63;;;25.90;;
5869;SDS011;2961;47.702;9.410;2022-12-07T05:32:40;70.50;;;24.67;;
5869;SDS011;2961;47.702;9.410;2022-12-07T05:35:07;56.17;;;25.20;;
5869;SDS011;2961;47.702;9.410;2022-12-07T05:37:34;53.97;;;24.23;;
5869;SDS011;2961;47.702;9.410;2022-12-07T05:40:01;64.87;;;25.97;;
5869;SDS011;2961;47.702;9.410;2022-12-07T05:42:30;65.30;;;26.13;;
5869;SDS011;2961;47.702;9.410;2022-12-07T05:44:56;64.63;;;27.37;;
5869;SDS011;2961;47.702;9.410;2022-12-07T05:47:23;61.00;;;25.97;;
5869;SDS011;2961;47.702;9.410;2022-12-07T05:49:50;67.70;;;25.80;;
5869;SDS011;2961;47.702;9.410;2022-12-07T05:52:17;70.00;;;28.57;;
5869;SDS011;2961;47.702;9.410;2022-12-07T05:54:44;70.00;;;27.43;;
5869;SDS011;2961;47.702;9.410;2022-12-07T05:57:10;62.73;;;26.27;;
5869;SDS011;2961;47.702;9.410;2022-12-07T05:59:39;65.30;;;27.37;;
5869;SDS011;2961;47.702;9.410;2022-12-07T06:02:05;59.17;;;27.63;;
5869;SDS011;2961;47.702;9.410;2022-12-07T06:04:35;72.53;;;29.10;;
5869;SDS011;2961;47.702;9.410;2022-12-07T06:07:02;55.10;;;25.53;;
5869;SDS011;2961;47.702;9.410;2022-12-07T06:09:30;64.13;;;27.07;;
5869;SDS011;2961;47.702;9.410;2022-12-07T06:11:57;63.57;;;26.77;;
5869;SDS011;2961;47.702;9.410;2022-12-07T06:14:44;69.10;;;27.73;;
5869;SDS011;2961;47.702;9.410;2022-12-07T06:17:11;80.60;;;34.10;;
5869;SDS011;2961;47.702;9.410;2022-12-07T06:19:38;87.18;;;36.00;;
5869;SDS011;2961;47.702;9.410;2022-12-07T06:22:05;69.67;;;28.17;;
5869;SDS011;2961;47.702;9.410;2022-12-07T06:24:34;62.70;;;28.87;;
5869;SDS011;2961;47.702;9.410;2022-12-07T06:27:01;69.70;;;30.57;;
5869;SDS011;2961;47.702;9.410;2022-12-07T06:29:28;69.80;;;26.90;;
5869;SDS011;2961;47.702;9.410;2022-12-07T06:31:56;71.47;;;29.07;;
5869;SDS011;2961;47.702;9.410;2022-12-07T06:34:23;66.80;;;29.27;;
5869;SDS011;2961;47.702;9.410;2022-12-07T06:36:52;71.07;;;29.97;;
5869;SDS011;2961;47.702;9.410;2022-12-07T06:39:20;63.60;;;29.50;;
5869;SDS011;2961;47.702;9.410;2022-12-07T06:41:49;70.00;;;29.37;;
5869;SDS011;2961;47.702;9.410;2022-12-07T06:44:17;74.97;;;30.63;;
5869;SDS011;2961;47.702;9.410;2022-12-07T06:46:45;64.47;;;28.13;;
5869;SDS011;2961;47.702;9.410;2022-12-07T06:49:14;59.60;;;26.40;;
5869;SDS011;2961;47.702;9.410;2022-12-07T06:51:40;55.77;;;26.00;;
5869;SDS011;2961;47.702;9.410;2022-12-07T06:54:08;66.97;;;26.30;;
5869;SDS011;2961;47.702;9.410;2022-12-07T06:56:35;67.57;;;28.43;;
5869;SDS011;2961;47.702;9.410;2022-12-07T06:59:02;61.87;;;27.30;;
5869;SDS011;2961;47.702;9.410;2022-12-07T07:01:30;73.97;;;29.10;;
5869;SDS011;2961;47.702;9.410;2022-12-07T07:03:57;57.33;;;25.73;;
5869;SDS011;2961;47.702;9.410;2022-12-07T07:06:25;75.97;;;26.90;;
5869;SDS011;2961;47.702;9.410;2022-12-07T07:08:52;77.07;;;30.57;;
5869;SDS011;2961;47.702;9.410;2022-12-07T07:11:19;84.60;;;28.07;;
5869;SDS011;2961;47.702;9.410;2022-12-07T07:13:46;62.33;;;26.90;;
5869;SDS011;2961;47.702;9.410;2022-12-07T07:16:13;63.60;;;27.07;;
5869;SDS011;2961;47.702;9.410;2022-12-07T07:18:39;70.50;;;28.20;;
5869;SDS011;2961;47.702;9.410;2022-12-07T07:21:06;66.33;;;29.60;;
5869;SDS011;2961;47.702;9.410;2022-12-07T07:23:34;67.43;;;28.23;;
5869;SDS011;2961;47.702;9.410;2022-12-07T07:26:01;69.03;;;28.20;;
5869;SDS011;2961;47.702;9.410;2022-12-07T07:28:28;63.70;;;27.43;;
5869;SDS011;2961;47.702;9.410;2022-12-07T07:30:55;73.17;;;29.10;;
5869;SDS011;2961;47.702;9.410;2022-12-07T07:33:22;67.83;;;28.43;;
5869;SDS011;2961;47.702;9.410;2022-12-07T07:35:49;83.33;;;30.30;;
5869;SDS011;2961;47.702;9.410;2022-12-07T07:38:15;77.90;;;28.63;;
5869;SDS011;2961;47.702;9.410;2022-12-07T07:40:43;71.27;;;30.30;;
5869;SDS011;2961;47.702;9.410;2022-12-07T07:43:10;76.30;;;30.80;;
5869;SDS011;2961;47.702;9.410;2022-12-07T07:45:37;68.07;;;29.70;;
5869;SDS011;2961;47.702;9.410;2022-12-07T07:48:04;74.90;;;28.93;;
5869;SDS011;2961;47.702;9.410;2022-12-07T07:50:31;73.07;;;27.67;;
5869;SDS011;2961;47.702;9.410;2022-12-07T07:52:58;81.30;;;30.13;;
5869;SDS011;2961;47.702;9.410;2022-12-07T07:55:25;71.30;;;28.33;;
5869;SDS011;2961;47.702;9.410;2022-12-07T07:57:53;85.90;;;32.47;;
5869;SDS011;2961;47.702;9.410;2022-12-07T08:00:21;64.83;;;27.17;;
5869;SDS011;2961;47.702;9.410;2022-12-07T08:02:48;85.53;;;33.10;;
5869;SDS011;2961;47.702;9.410;2022-12-07T08:05:15;91.50;;;30.93;;
5869;SDS011;2961;47.702;9.410;2022-12-07T08:07:42;72.03;;;27.10;;
5869;SDS011;2961;47.702;9.410;2022-12-07T08:10:09;78.50;;;29.10;;
5869;SDS011;2961;47.702;9.410;2022-12-07T08:12:37;85.30;;;31.17;;
5869;SDS011;2961;47.702;9.410;2022-12-07T08:15:28;77.00;;;29.77;;
5869;SDS011;2961;47.702;9.410;2022-12-07T08:17:57;77.50;;;29.27;;
5869;SDS011;2961;47.702;9.410;2022-12-07T08:20:23;86.73;;;31.77;;
5869;SDS011;2961;47.702;9.410;2022-12-07T08:22:50;81.50;;;32.57;;
5869;SDS011;2961;47.702;9.410;2022-12-07T08:25:17;92.47;;;31.70;;
5869;SDS011;2961;47.702;9.410;2022-12-07T08:27:44;65.67;;;28.77;;
5869;SDS011;2961;47.702;9.410;2022-12-07T08:30:11;85.23;;;30.57;;
5869;SDS011;2961;47.702;9.410;2022-12-07T08:32:39;81.30;;;31.33;;
5869;SDS011;2961;47.702;9.410;2022-12-07T08:35:06;79.20;;;30.03;;
5869;SDS011;2961;47.702;9.410;2022-12-07T08:37:34;66.23;;;29.33;;
5869;SDS011;2961;47.702;9.410;2022-12-07T08:40:00;77.60;;;29.47;;
5869;SDS011;2961;47.702;9.410;2022-12-07T08:42:27;75.70;;;28.73;;
5869;SDS011;2961;47.702;9.410;2022-12-07T08:45:02;68.93;;;28.87;;
5869;SDS011;2961;47.702;9.410;2022-12-07T08:47:30;59.70;;;23.70;;
5869;SDS011;2961;47.702;9.410;2022-12-07T08:49:58;58.93;;;25.50;;
5869;SDS011;2961;47.702;9.410;2022-12-07T08:52:28;58.83;;;23.30;;
5869;SDS011;2961;47.702;9.410;2022-12-07T08:54:55;49.50;;;20.30;;
5869;SDS011;2961;47.702;9.410;2022-12-07T08:57:23;52.57;;;23.10;;
5869;SDS011;2961;47.702;9.410;2022-12-07T08:59:50;49.70;;;22.10;;
5869;SDS011;2961;47.702;9.410;2022-12-07T09:02:17;46.00;;;22.17;;
5869;SDS011;2961;47.702;9.410;2022-12-07T09:04:44;51.90;;;22.73;;
5869;SDS011;2961;47.702;9.410;2022-12-07T09:07:12;54.53;;;20.87;;
5869;SDS011;2961;47.702;9.410;2022-12-07T09:09:38;49.43;;;21.87;;
5869;SDS011;2961;47.702;9.410;2022-12-07T09:12:05;51.80;;;21.70;;
5869;SDS011;2961;47.702;9.410;2022-12-07T09:14:32;46.83;;;20.47;;
5869;SDS011;2961;47.702;9.410;2022-12-07T09:17:04;44.53;;;20.70;;
5869;SDS011;2961;47.702;9.410;2022-12-07T09:19:32;43.70;;;19.80;;
5869;SDS011;2961;47.702;9.410;2022-12-07T09:21:59;38.73;;;19.47;;
5869;SDS011;2961;47.702;9.410;2022-12-07T09:24:27;34.83;;;16.03;;
5869;SDS011;2961;47.702;9.410;2022-12-07T09:26:54;38.40;;;17.00;;
5869;SDS011;2961;47.702;9.410;2022-12-07T09:29:21;28.53;;;14.50;;
5869;SDS011;2961;47.702;9.410;2022-12-07T09:31:47;30.23;;;15.70;;
5869;SDS011;2961;47.702;9.410;2022-12-07T09:34:14;30.47;;;15.50;;
5869;SDS011;2961;47.702;9.410;2022-12-07T09:36:41;26.57;;;14.80;;
5869;SDS011;2961;47.702;9.410;2022-12-07T09:39:08;35.93;;;16.40;;
5869;SDS011;2961;47.702;9.410;2022-12-07T09:41:38;26.03;;;14.30;;
5869;SDS011;2961;47.702;9.410;2022-12-07T09:44:09;29.37;;;15.20;;
5869;SDS011;2961;47.702;9.410;2022-12-07T09:46:39;25.87;;;13.80;;
5869;SDS011;2961;47.702;9.410;2022-12-07T09:49:09;23.53;;;13.60;;
5869;SDS011;2961;47.702;9.410;2022-12-07T09:51:39;21.90;;;11.70;;
5869;SDS011;2961;47.702;9.410;2022-12-07T09:54:06;19.33;;;11.23;;
5869;SDS011;2961;47.702;9.410;2022-12-07T09:56:35;22.50;;;12.83;;
5869;SDS011;2961;47.702;9.410;2022-12-07T09:59:03;20.23;;;11.97;;
5869;SDS011;2961;47.702;9.410;2022-12-07T10:01:30;19.30;;;12.30;;
5869;SDS011;2961;47.702;9.410;2022-12-07T10:04:01;25.53;;;12.47;;
5869;SDS011;2961;47.702;9.410;2022-12-07T10:06:35;20.33;;;12.87;;
5869;SDS011;2961;47.702;9.410;2022-12-07T10:09:02;21.47;;;12.13;;
5869;SDS011;2961;47.702;9.410;2022-12-07T10:11:34;22.20;;;12.57;;
5869;SDS011;2961;47.702;9.410;2022-12-07T10:14:11;17.93;;;11.77;;
5869;SDS011;2961;47.702;9.410;2022-12-07T10:16:39;19.83;;;12.33;;
5869;SDS011;2961;47.702;9.410;2022-12-07T10:19:17;24.03;;;12.63;;
5869;SDS011;2961;47.702;9.410;2022-12-07T10:21:59;24.93;;;14.63;;
5869;SDS011;2961;47.702;9.410;2022-12-07T10:24:30;20.50;;;13.00;;
5869;SDS011;2961;47.702;9.410;2022-12-07T10:26:57;21.50;;;12.10;;
5869;SDS011;2961;47.702;9.410;2022-12-07T10:29:27;20.10;;;12.27;;
5869;SDS011;2961;47.702;9.410;2022-12-07T10:31:57;21.00;;;12.80;;
5869;SDS011;2961;47.702;9.410;2022-12-07T10:34:26;21.80;;;12.30;;
5869;SDS011;2961;47.702;9.410;2022-12-07T10:37:06;19.87;;;12.20;;
5869;SDS011;2961;47.702;9.410;2022-12-07T10:39:40;16.37;;;11.10;;
5869;SDS011;2961;47.702;9.410;2022-12-07T10:42:15;20.30;;;12.30;;
5869;SDS011;2961;47.702;9.410;2022-12-07T10:44:44;20.43;;;12.20;;
5869;SDS011;2961;47.702;9.410;2022-12-07T10:47:29;20.63;;;11.87;;
5869;SDS011;2961;47.702;9.410;2022-12-07T10:56:11;20.10;;;12.17;;
5869;SDS011;2961;47.702;9.410;2022-12-07T10:59:03;18.70;;;11.80;;
5869;SDS011;2961;47.702;9.410;2022-12-07T11:01:43;17.83;;;11.00;;
5869;SDS011;2961;47.702;9.410;2022-12-07T11:04:29;18.47;;;11.37;;
5869;SDS011;2961;47.702;9.410;2022-12-07T11:07:04;19.53;;;11.90;;
5869;SDS011;2961;47.702;9.410;2022-12-07T11:09:41;19.83;;;11.17;;
5869;SDS011;2961;47.702;9.410;2022-12-07T11:12:31;24.60;;;12.10;;
5869;SDS011;2961;47.702;9.410;2022-12-07T11:15:13;20.60;;;12.53;;
5869;SDS011;2961;47.702;9.410;2022-12-07T11:17:48;27.80;;;14.23;;
5869;SDS011;2961;47.702;9.410;2022-12-07T11:20:26;24.37;;;15.30;;
5869;SDS011;2961;47.702;9.410;2022-12-07T11:22:59;25.07;;;14.03;;
5869;SDS011;2961;47.702;9.410;2022-12-07T11:25:38;25.87;;;15.23;;
5869;SDS011;2961;47.702;9.410;2022-12-07T11:28:15;23.17;;;14.87;;
5869;SDS011;2961;47.702;9.410;2022-12-07T11:30:52;28.43;;;16.30;;
5869;SDS011;2961;47.702;9.410;2022-12-07T11:33:33;26.40;;;15.93;;
5869;SDS011;2961;47.702;9.410;2022-12-07T11:36:09;30.37;;;16.53;;
5869;SDS011;2961;47.702;9.410;2022-12-07T11:38:50;31.50;;;15.50;;
5869;SDS011;2961;47.702;9.410;2022-12-07T11:41:20;27.37;;;15.67;;
5869;SDS011;2961;47.702;9.410;2022-12-07T11:43:56;27.10;;;15.07;;
5869;SDS011;2961;47.702;9.410;2022-12-07T11:46:29;24.90;;;13.47;;
5869;SDS011;2961;47.702;9.410;2022-12-07T11:49:07;31.83;;;16.03;;
5869;SDS011;2961;47.702;9.410;2022-12-07T11:51:39;30.37;;;15.20;;
5869;SDS011;2961;47.702;9.410;2022-12-07T11:54:11;26.63;;;16.10;;
5869;SDS011;2961;47.702;9.410;2022-12-07T11:56:40;26.10;;;15.47;;
5869;SDS011;2961;47.702;9.410;2022-12-07T11:59:08;28.20;;;18.80;;
5869;SDS011;2961;47.702;9.410;2022-12-07T12:01:42;31.50;;;20.57;;
5869;SDS011;2961;47.702;9.410;2022-12-07T12:04:22;22.70;;;14.30;;
5869;SDS011;2961;47.702;9.410;2022-12-07T12:06:53;20.67;;;14.03;;
5869;SDS011;2961;47.702;9.410;2022-12-07T12:09:21;20.30;;;12.57;;
5869;SDS011;2961;47.702;9.410;2022-12-07T12:14:53;22.50;;;13.33;;
5869;SDS011;2961;47.702;9.410;2022-12-07T12:20:29;24.37;;;14.23;;
5869;SDS011;2961;47.702;9.410;2022-12-07T12:23:04;19.53;;;13.50;;
5869;SDS011;2961;47.702;9.410;2022-12-07T12:25:36;20.23;;;14.02;;
5869;SDS011;2961;47.702;9.410;2022-12-07T12:28:15;18.43;;;13.33;;
5869;SDS011;2961;47.702;9.410;2022-12-07T12:31:03;20.40;;;12.57;;
5869;SDS011;2961;47.702;9.410;2022-12-07T12:33:32;19.13;;;12.73;;
5869;SDS011;2961;47.702;9.410;2022-12-07T12:38:50;20.43;;;12.40;;
5869;SDS011;2961;47.702;9.410;2022-12-07T12:44:41;19.13;;;12.00;;
5869;SDS011;2961;47.702;9.410;2022-12-07T12:47:38;16.63;;;11.53;;
5869;SDS011;2961;47.702;9.410;2022-12-07T12:50:22;17.80;;;11.83;;
5869;SDS011;2961;47.702;9.410;2022-12-07T12:53:00;17.13;;;12.07;;
5869;SDS011;2961;47.702;9.410;2022-12-07T12:58:31;17.40;;;10.27;;
5869;SDS011;2961;47.702;9.410;2022-12-07T13:04:25;16.00;;;11.80;;
5869;SDS011;2961;47.702;9.410;2022-12-07T13:07:10;14.13;;;9.47;;
5869;SDS011;2961;47.702;9.410;2022-12-07T13:09:41;23.77;;;11.70;;
5869;SDS011;2961;47.702;9.410;2022-12-07T13:12:14;15.53;;;10.57;;
5869;SDS011;2961;47.702;9.410;2022-12-07T13:14:55;13.87;;;10.70;;
5869;SDS011;2961;47.702;9.410;2022-12-07T13:20:40;16.50;;;10.87;;
5869;SDS011;2961;47.702;9.410;2022-12-07T13:23:12;13.77;;;10.10;;
5869;SDS011;2961;47.702;9.410;2022-12-07T13:25:48;13.70;;;10.47;;
5869;SDS011;2961;47.702;9.410;2022-12-07T13:28:20;16.77;;;11.97;;
5869;SDS011;2961;47.702;9.410;2022-12-07T13:30:57;18.97;;;11.00;;
5869;SDS011;2961;47.702;9.410;2022-12-07T13:33:28;15.77;;;11.20;;
5869;SDS011;2961;47.702;9.410;2022-12-07T13:35:55;13.43;;;10.03;;
5869;SDS011;2961;47.702;9.410;2022-12-07T13:38:27;20.33;;;11.20;;
5869;SDS011;2961;47.702;9.410;2022-12-07T13:41:13;12.53;;;10.33;;
5869;SDS011;2961;47.702;9.410;2022-12-07T13:43:44;17.97;;;11.17;;
5869;SDS011;2961;47.702;9.410;2022-12-07T13:46:14;14.40;;;10.70;;
5869;SDS011;2961;47.702;9.410;2022-12-07T13:48:44;15.77;;;11.00;;
5869;SDS011;2961;47.702;9.410;2022-12-07T13:51:19;19.33;;;11.70;;
5869;SDS011;2961;47.702;9.410;2022-12-07T13:53:48;14.20;;;10.17;;
5869;SDS011;2961;47.702;9.410;2022-12-07T13:56:18;15.57;;;10.20;;
5869;SDS011;2961;47.702;9.410;2022-12-07T13:58:48;17.90;;;12.57;;
5869;SDS011;2961;47.702;9.410;2022-12-07T14:01:15;16.77;;;11.77;;
5869;SDS011;2961;47.702;9.410;2022-12-07T14:03:43;13.77;;;9.57;;
5869;SDS011;2961;47.702;9.410;2022-12-07T14:06:16;16.13;;;10.50;;
5869;SDS011;2961;47.702;9.410;2022-12-07T14:08:46;18.53;;;11.27;;
5869;SDS011;2961;47.702;9.410;2022-12-07T14:11:15;16.60;;;10.30;;
5869;SDS011;2961;47.702;9.410;2022-12-07T14:13:51;40.90;;;23.20;;
5869;SDS011;2961;47.702;9.410;2022-12-07T14:16:25;24.92;;;17.35;;
5869;SDS011;2961;47.702;9.410;2022-12-07T14:18:54;20.02;;;15.40;;
5869;SDS011;2961;47.702;9.410;2022-12-07T14:21:22;21.07;;;13.93;;
5869;SDS011;2961;47.702;9.410;2022-12-07T14:24:09;16.10;;;11.97;;
5869;SDS011;2961;47.702;9.410;2022-12-07T14:26:46;14.40;;;10.30;;
5869;SDS011;2961;47.702;9.410;2022-12-07T14:29:21;17.93;;;11.70;;
5869;SDS011;2961;47.702;9.410;2022-12-07T14:31:55;15.90;;;12.00;;
5869;SDS011;2961;47.702;9.410;2022-12-07T14:34:23;13.63;;;9.80;;
5869;SDS011;2961;47.702;9.410;2022-12-07T14:36:51;19.57;;;11.83;;
5869;SDS011;2961;47.702;9.410;2022-12-07T14:39:18;16.57;;;11.17;;
5869;SDS011;2961;47.702;9.410;2022-12-07T14:41:46;12.73;;;9.83;;
5869;SDS011;2961;47.702;9.410;2022-12-07T14:44:19;18.90;;;11.10;;
5869;SDS011;2961;47.702;9.410;2022-12-07T14:46:48;13.87;;;10.10;;
5869;SDS011;2961;47.702;9.410;2022-12-07T14:49:16;14.83;;;10.33;;
5869;SDS011;2961;47.702;9.410;2022-12-07T14:51:43;16.80;;;11.90;;
5869;SDS011;2961;47.702;9.410;2022-12-07T14:54:13;16.30;;;11.70;;
5869;SDS011;2961;47.702;9.410;2022-12-07T14:56:43;17.53;;;11.13;;
5869;SDS011;2961;47.702;9.410;2022-12-07T14:59:12;17.03;;;10.60;;
5869;SDS011;2961;47.702;9.410;2022-12-07T15:01:38;16.23;;;11.27;;
5869;SDS011;2961;47.702;9.410;2022-12-07T15:04:05;21.33;;;11.57;;
5869;SDS011;2961;47.702;9.410;2022-12-07T15:06:32;16.53;;;11.27;;
5869;SDS011;2961;47.702;9.410;2022-12-07T15:08:59;16.43;;;11.90;;
5869;SDS011;2961;47.702;9.410;2022-12-07T15:11:26;19.70;;;13.00;;
5869;SDS011;2961;47.702;9.410;2022-12-07T15:13:53;24.00;;;13.60;;
5869;SDS011;2961;47.702;9.410;2022-12-07T15:16:38;19.47;;;11.20;;
5869;SDS011;2961;47.702;9.410;2022-12-07T15:19:06;14.17;;;10.27;;
5869;SDS011;2961;47.702;9.410;2022-12-07T15:21:39;17.63;;;11.70;;
5869;SDS011;2961;47.702;9.410;2022-12-07T15:24:07;14.50;;;10.10;;
5869;SDS011;2961;47.702;9.410;2022-12-07T15:26:35;15.90;;;11.43;;
5869;SDS011;2961;47.702;9.410;2022-12-07T15:29:02;14.83;;;10.37;;
5869;SDS011;2961;47.702;9.410;2022-12-07T15:31:43;19.33;;;10.67;;
5869;SDS011;2961;47.702;9.410;2022-12-07T15:34:10;16.70;;;11.20;;
5869;SDS011;2961;47.702;9.410;2022-12-07T15:36:37;15.00;;;10.63;;